Time;durP1;ratioP1;P1;durP2;ratioP2;P2;SDS_P1;SDS_P2;PMS_P1;PMS_P2;Temp;Humidity;BMP_temperature;BMP_pressure;BME280_temperature;BME280_humidity;BME280_pressure;Samples;Min_cycle;Max_cycle;Signal;HPM_P1;HPM_P2
2022/05/27 00:02:22;;;;;;;2.27;2.07;;;14.30;99.90;;;;;;4930577;29;20471;-81
2022/05/27 00:04:49;;;;;;;2.40;1.90;;;14.30;99.90;;;;;;4930909;29;20465;-81
2022/05/27 00:07:15;;;;;;;1.93;1.80;;;14.30;99.90;;;;;;4930420;29;20454;-81
2022/05/27 00:09:42;;;;;;;2.87;2.43;;;14.20;99.90;;;;;;4930922;29;20454;-82
2022/05/27 00:12:10;;;;;;;2.23;2.13;;;14.10;99.90;;;;;;4930522;29;20461;-82
2022/05/27 00:14:37;;;;;;;2.00;1.90;;;14.10;99.90;;;;;;4929968;29;20458;-81
2022/05/27 00:17:05;;;;;;;2.60;2.40;;;14.10;99.90;;;;;;4930072;29;20455;-82
2022/05/27 00:19:31;;;;;;;2.20;2.07;;;14.00;99.90;;;;;;4929953;29;20459;-82
2022/05/27 00:21:58;;;;;;;2.23;2.07;;;14.00;99.90;;;;;;4929945;29;20458;-82
2022/05/27 00:24:25;;;;;;;2.13;1.93;;;13.90;99.90;;;;;;4929374;29;20461;-81
2022/05/27 00:26:52;;;;;;;1.97;1.83;;;13.90;99.90;;;;;;4929865;29;20455;-82
2022/05/27 00:29:20;;;;;;;1.97;1.87;;;13.80;99.90;;;;;;4929588;29;21008;-81
2022/05/27 00:31:46;;;;;;;2.30;2.20;;;13.70;99.90;;;;;;4926487;29;20454;-83
2022/05/27 00:34:14;;;;;;;2.50;1.93;;;13.70;99.90;;;;;;4921175;29;20465;-83
2022/05/27 00:36:41;;;;;;;2.40;2.30;;;13.70;99.90;;;;;;4921688;29;20460;-83
2022/05/27 00:39:08;;;;;;;2.10;1.93;;;13.80;99.90;;;;;;4920748;29;20474;-83
2022/05/27 00:41:34;;;;;;;2.23;2.13;;;13.80;99.90;;;;;;4921449;29;20446;-81
2022/05/27 00:44:01;;;;;;;2.40;2.20;;;13.80;99.90;;;;;;4921340;29;20918;-83
2022/05/27 00:46:32;;;;;;;1.90;1.80;;;13.90;99.90;;;;;;4921823;29;21008;-83
2022/05/27 00:49:05;;;;;;;2.10;2.00;;;13.90;99.90;;;;;;4920902;29;20517;-81
2022/05/27 00:51:35;;;;;;;2.10;1.83;;;13.90;99.90;;;;;;4920941;29;20455;-83
2022/05/27 00:54:08;;;;;;;2.03;1.93;;;13.90;99.90;;;;;;4920732;29;20460;-83
2022/05/27 00:56:39;;;;;;;2.00;1.90;;;13.70;99.90;;;;;;4921484;29;20451;-83
2022/05/27 00:59:12;;;;;;;2.10;2.00;;;13.70;99.90;;;;;;4920988;29;20510;-83
2022/05/27 01:01:41;;;;;;;2.67;2.10;;;13.50;99.90;;;;;;4922084;29;20478;-83
2022/05/27 01:04:10;;;;;;;2.40;2.30;;;13.40;99.90;;;;;;4924914;29;20798;-83
2022/05/27 01:06:37;;;;;;;2.40;2.20;;;13.30;99.90;;;;;;4925060;29;20945;-83
2022/05/27 01:09:04;;;;;;;2.27;2.07;;;13.50;99.90;;;;;;4924590;29;20495;-84
2022/05/27 01:11:47;;;;;;;2.00;1.90;;;13.60;99.90;;;;;;4924868;29;20461;-83
2022/05/27 01:14:28;;;;;;;2.33;2.13;;;13.60;99.90;;;;;;4924819;29;20461;-83
2022/05/27 01:17:06;;;;;;;2.83;2.63;;;13.60;99.90;;;;;;4924857;29;20464;-83
2022/05/27 01:20:20;;;;;;;3.40;2.50;;;13.50;99.90;;;;;;4925604;29;20451;-82
2022/05/27 01:23:22;;;;;;;7.53;2.73;;;13.50;99.90;;;;;;4924796;29;20513;-84
2022/05/27 01:26:20;;;;;;;2.30;2.10;;;13.50;99.90;;;;;;4924376;29;20458;-84
2022/05/27 01:28:52;;;;;;;1.97;1.87;;;13.40;99.90;;;;;;4919565;29;20497;-84
2022/05/27 01:31:28;;;;;;;3.03;2.80;;;13.30;99.90;;;;;;4923914;29;20799;-83
2022/05/27 01:34:04;;;;;;;1.70;1.60;;;13.30;99.90;;;;;;4924346;29;20864;-84
2022/05/27 01:36:39;;;;;;;2.40;2.20;;;13.40;99.90;;;;;;4924602;29;20967;-84
2022/05/27 01:39:11;;;;;;;2.10;2.00;;;13.50;99.90;;;;;;4923730;29;20471;-82
2022/05/27 01:41:44;;;;;;;2.57;2.20;;;13.40;99.90;;;;;;4923858;29;20456;-82
2022/05/27 01:44:18;;;;;;;2.17;2.07;;;13.50;99.90;;;;;;4923807;29;20458;-83
2022/05/27 01:46:48;;;;;;;3.20;2.20;;;13.40;99.90;;;;;;4924340;29;20447;-84
2022/05/27 01:49:23;;;;;;;3.07;2.87;;;13.40;99.90;;;;;;4924184;29;20495;-84
2022/05/27 01:51:56;;;;;;;2.80;1.90;;;13.40;99.90;;;;;;4924025;29;20476;-84
2022/05/27 01:54:28;;;;;;;2.30;2.10;;;13.20;99.90;;;;;;4924243;29;20462;-84
2022/05/27 01:57:00;;;;;;;1.93;1.60;;;13.20;99.90;;;;;;4923535;29;20458;-83
2022/05/27 01:59:33;;;;;;;6.63;2.40;;;13.20;99.90;;;;;;4921820;29;20478;-83
2022/05/27 02:02:08;;;;;;;2.33;2.13;;;13.10;99.90;;;;;;4924595;29;20454;-84
2022/05/27 02:04:40;;;;;;;2.13;2.03;;;13.10;99.90;;;;;;4924509;29;20468;-80
2022/05/27 02:07:11;;;;;;;4.40;2.50;;;13.10;99.90;;;;;;4923432;29;20466;-83
2022/05/27 02:09:42;;;;;;;2.03;1.87;;;13.10;99.90;;;;;;4923455;29;20498;-84
2022/05/27 02:12:15;;;;;;;2.63;2.00;;;13.20;99.90;;;;;;4923873;29;20941;-82
2022/05/27 02:14:47;;;;;;;2.67;2.07;;;13.30;99.90;;;;;;4922851;29;20982;-84
2022/05/27 02:17:21;;;;;;;2.20;2.03;;;13.20;99.90;;;;;;4923439;29;20465;-84
2022/05/27 02:19:53;;;;;;;1.97;1.87;;;13.10;99.90;;;;;;4924015;29;20959;-84
2022/05/27 02:22:25;;;;;;;2.33;2.23;;;13.00;99.90;;;;;;4923779;29;20465;-83
2022/05/27 02:24:57;;;;;;;2.17;2.07;;;13.10;99.90;;;;;;4923935;29;20462;-84
2022/05/27 02:27:28;;;;;;;4.10;2.27;;;13.00;99.90;;;;;;4923399;29;20832;-83
2022/05/27 02:30:01;;;;;;;3.80;2.37;;;13.10;99.90;;;;;;4923967;29;20587;-84
2022/05/27 02:32:33;;;;;;;2.33;2.17;;;12.90;99.90;;;;;;4925981;29;20861;-81
2022/05/27 02:35:09;;;;;;;2.83;2.67;;;13.00;99.90;;;;;;4935263;29;20466;-81
2022/05/27 02:37:40;;;;;;;2.27;2.17;;;13.00;99.90;;;;;;4934441;29;20485;-81
2022/05/27 02:40:12;;;;;;;2.20;2.00;;;12.80;99.90;;;;;;4933738;29;20450;-81
2022/05/27 02:42:48;;;;;;;3.20;2.30;;;12.80;99.90;;;;;;4934766;29;20461;-81
2022/05/27 02:45:27;;;;;;;2.60;2.40;;;12.70;99.90;;;;;;4934895;29;20465;-81
2022/05/27 02:48:04;;;;;;;3.00;2.80;;;12.60;99.90;;;;;;4934930;29;20512;-81
2022/05/27 02:50:38;;;;;;;3.47;1.90;;;12.60;99.90;;;;;;4933614;29;20505;-81
2022/05/27 02:53:13;;;;;;;2.60;2.40;;;12.50;99.90;;;;;;4934191;29;20446;-81
2022/05/27 02:55:51;;;;;;;2.00;1.90;;;12.50;99.90;;;;;;4934539;29;20453;-81
2022/05/27 02:58:18;;;;;;;2.10;2.00;;;12.60;99.90;;;;;;4934325;29;20481;-81
2022/05/27 03:00:46;;;;;;;2.60;2.40;;;12.50;99.90;;;;;;4934058;29;20455;-81
2022/05/27 03:03:14;;;;;;;2.37;2.10;;;12.50;99.90;;;;;;4934364;29;20492;-81
2022/05/27 03:05:58;;;;;;;2.90;2.60;;;12.60;99.90;;;;;;4933684;29;20465;-81
2022/05/27 03:08:28;;;;;;;2.27;2.17;;;12.60;99.90;;;;;;4934226;29;20475;-81
2022/05/27 03:11:05;;;;;;;3.07;2.87;;;12.50;99.90;;;;;;4934062;29;20450;-81
2022/05/27 03:13:50;;;;;;;2.80;2.60;;;12.40;99.90;;;;;;4934104;29;20450;-81
2022/05/27 03:16:26;;;;;;;2.43;2.33;;;12.30;99.90;;;;;;4933534;29;20451;-81
2022/05/27 03:19:09;;;;;;;2.13;1.80;;;12.40;99.90;;;;;;4933830;29;20466;-80
2022/05/27 03:21:48;;;;;;;2.80;2.57;;;12.50;99.90;;;;;;4933434;29;20462;-81
2022/05/27 03:24:22;;;;;;;2.53;2.33;;;12.60;99.90;;;;;;4933257;29;20461;-81
2022/05/27 03:27:04;;;;;;;2.33;2.10;;;12.60;99.90;;;;;;4934237;29;20465;-81
2022/05/27 03:29:37;;;;;;;2.70;2.50;;;12.70;99.90;;;;;;4933716;29;20494;-81
2022/05/27 03:32:15;;;;;;;2.73;2.53;;;12.80;99.90;;;;;;4933648;29;20458;-80
2022/05/27 03:34:49;;;;;;;2.50;2.30;;;12.60;99.90;;;;;;4933234;29;20965;-81
2022/05/27 03:37:21;;;;;;;2.33;2.13;;;12.60;99.90;;;;;;4933678;29;20457;-81
2022/05/27 03:39:58;;;;;;;2.80;2.00;;;12.80;99.90;;;;;;4933883;29;20457;-81
2022/05/27 03:42:26;;;;;;;3.93;3.50;;;12.80;99.90;;;;;;4933345;29;20486;-81
2022/05/27 03:44:58;;;;;;;2.20;2.10;;;12.80;99.90;;;;;;4933448;29;20454;-81
2022/05/27 03:47:24;;;;;;;2.80;2.47;;;12.80;99.90;;;;;;4911367;29;20467;-81
2022/05/27 03:49:53;;;;;;;2.67;2.13;;;12.90;99.90;;;;;;4922061;29;20501;-81
2022/05/27 03:52:22;;;;;;;4.03;2.50;;;13.00;99.90;;;;;;4921504;29;20462;-83
2022/05/27 03:54:49;;;;;;;2.43;2.33;;;12.90;99.90;;;;;;4921406;29;20862;-83
2022/05/27 03:57:16;;;;;;;2.40;2.30;;;13.00;99.90;;;;;;4922055;29;20450;-83
2022/05/27 03:59:42;;;;;;;2.87;2.70;;;13.00;99.90;;;;;;4922227;29;20465;-83
2022/05/27 04:02:10;;;;;;;3.00;2.80;;;13.20;99.90;;;;;;4921892;29;21147;-83
2022/05/27 04:04:36;;;;;;;2.63;2.00;;;13.30;99.90;;;;;;4921845;29;20454;-83
2022/05/27 04:07:05;;;;;;;2.30;2.20;;;13.40;99.90;;;;;;4921610;29;20458;-83
2022/05/27 04:09:33;;;;;;;2.77;2.57;;;13.30;99.90;;;;;;4921931;29;20531;-82
2022/05/27 04:12:00;;;;;;;2.23;2.13;;;13.30;99.90;;;;;;4921280;29;20468;-82
2022/05/27 04:14:27;;;;;;;2.87;1.93;;;13.30;99.90;;;;;;4921771;29;20454;-83
2022/05/27 04:17:27;;;;;;;2.93;2.80;;;13.20;99.90;;;;;;4921326;29;20860;-83
2022/05/27 04:19:41;;;;;;;1.97;1.87;;;13.20;99.90;;;;;;4902572;29;20532;-83
2022/05/27 04:22:09;;;;;;;2.50;2.30;;;13.40;99.90;;;;;;4906139;29;20975;-83
2022/05/27 04:24:36;;;;;;;2.37;2.10;;;13.50;99.90;;;;;;4922243;29;20822;-83
2022/05/27 04:27:08;;;;;;;2.20;2.10;;;13.30;99.90;;;;;;4921357;29;20978;-83
2022/05/27 04:29:39;;;;;;;2.20;2.03;;;13.30;99.90;;;;;;4921833;29;20581;-84
2022/05/27 04:32:06;;;;;;;2.50;2.30;;;13.40;99.90;;;;;;4920980;29;21022;-82
2022/05/27 04:34:33;;;;;;;2.00;1.90;;;13.40;99.90;;;;;;4921904;29;20952;-83
2022/05/27 04:37:00;;;;;;;4.03;3.63;;;13.40;99.90;;;;;;4920079;29;20466;-83
2022/05/27 04:39:28;;;;;;;3.50;2.40;;;13.50;99.90;;;;;;4921884;29;20862;-83
2022/05/27 04:41:55;;;;;;;4.60;2.80;;;13.50;99.90;;;;;;4921787;29;20458;-83
2022/05/27 04:44:22;;;;;;;3.00;2.50;;;13.60;99.90;;;;;;4921310;29;20470;-83
2022/05/27 04:46:49;;;;;;;3.17;2.87;;;13.60;99.90;;;;;;4921623;29;20446;-83
2022/05/27 04:51:56;;;;;;;3.30;3.00;;;13.70;99.90;;;;;;4920760;29;21023;-83
2022/05/27 04:54:23;;;;;;;3.70;3.40;;;13.70;99.90;;;;;;4920909;29;20461;-81
2022/05/27 04:56:51;;;;;;;5.33;2.50;;;13.70;99.90;;;;;;4921126;29;20450;-83
2022/05/27 04:59:18;;;;;;;2.83;2.63;;;13.70;99.90;;;;;;4920898;29;20837;-83
2022/05/27 05:01:45;;;;;;;3.07;2.77;;;13.70;99.90;;;;;;4921002;29;20469;-81
2022/05/27 05:04:12;;;;;;;3.00;2.70;;;13.70;99.90;;;;;;4921715;29;20468;-83
2022/05/27 05:06:39;;;;;;;2.33;2.17;;;13.80;99.90;;;;;;4920733;29;20451;-83
2022/05/27 05:09:06;;;;;;;4.10;2.47;;;13.80;99.90;;;;;;4921305;29;20466;-83
2022/05/27 05:11:33;;;;;;;2.37;2.17;;;13.80;99.90;;;;;;4921232;29;20458;-84
2022/05/27 05:14:01;;;;;;;2.63;2.43;;;13.80;99.90;;;;;;4921505;29;20460;-83
2022/05/27 05:16:28;;;;;;;4.00;2.20;;;13.90;99.90;;;;;;4920124;29;20973;-83
2022/05/27 05:18:55;;;;;;;2.93;2.50;;;14.00;99.90;;;;;;4921438;29;20491;-83
2022/05/27 05:21:22;;;;;;;3.30;2.10;;;14.00;99.90;;;;;;4920711;29;20456;-83
2022/05/27 05:23:49;;;;;;;2.00;1.90;;;14.10;99.90;;;;;;4921073;29;20466;-83
2022/05/27 05:26:15;;;;;;;3.90;2.53;;;14.10;99.90;;;;;;4921349;29;20459;-82
2022/05/27 05:28:42;;;;;;;3.93;2.40;;;14.20;99.90;;;;;;4920628;29;20479;-83
2022/05/27 05:31:16;;;;;;;5.20;2.63;;;14.30;99.90;;;;;;4920410;29;20495;-84
2022/05/27 05:33:43;;;;;;;3.20;3.00;;;14.50;99.90;;;;;;4921222;29;20456;-83
2022/05/27 05:36:10;;;;;;;3.80;2.33;;;14.60;99.90;;;;;;4920788;29;20463;-83
2022/05/27 05:38:37;;;;;;;2.90;2.70;;;14.70;99.90;;;;;;4920707;29;20474;-82
2022/05/27 05:41:04;;;;;;;3.40;2.10;;;14.90;99.90;;;;;;4920642;29;20462;-82
2022/05/27 05:43:31;;;;;;;3.37;2.40;;;15.00;99.90;;;;;;4921134;29;20468;-84
2022/05/27 05:45:58;;;;;;;4.70;3.30;;;15.20;99.90;;;;;;4921410;29;20467;-81
2022/05/27 05:48:26;;;;;;;2.43;2.20;;;15.40;99.90;;;;;;4922835;29;20575;-83
2022/05/27 05:50:53;;;;;;;2.63;2.43;;;15.40;99.90;;;;;;4923921;29;20499;-83
2022/05/27 05:53:21;;;;;;;2.87;2.67;;;15.50;99.90;;;;;;4924752;29;20455;-83
2022/05/27 05:55:47;;;;;;;2.33;2.13;;;15.50;99.90;;;;;;4925209;29;20454;-83
2022/05/27 05:58:14;;;;;;;2.77;2.57;;;15.60;99.90;;;;;;4924242;29;20478;-82
2022/05/27 06:00:41;;;;;;;3.50;3.20;;;15.70;99.90;;;;;;4924472;29;20453;-83
2022/05/27 06:03:08;;;;;;;3.50;3.20;;;15.80;99.90;;;;;;4924441;29;20468;-83
2022/05/27 06:05:38;;;;;;;3.27;2.77;;;15.70;99.90;;;;;;4924680;29;20459;-84
2022/05/27 06:08:05;;;;;;;2.70;2.50;;;15.70;99.90;;;;;;4924736;29;20503;-82
2022/05/27 06:10:33;;;;;;;2.57;2.37;;;15.90;99.90;;;;;;4934484;29;20516;-82
2022/05/27 06:12:59;;;;;;;3.20;2.90;;;15.90;99.90;;;;;;4934600;29;20459;-81
2022/05/27 06:15:26;;;;;;;2.97;2.70;;;16.00;99.90;;;;;;4934342;29;20459;-81
2022/05/27 06:17:53;;;;;;;3.17;2.70;;;16.00;99.90;;;;;;4926352;29;20481;-81
2022/05/27 06:20:20;;;;;;;3.40;2.50;;;15.90;99.90;;;;;;4924608;29;20452;-81
2022/05/27 06:22:48;;;;;;;2.30;2.10;;;16.00;99.90;;;;;;4923803;29;20444;-81
2022/05/27 06:25:15;;;;;;;2.40;2.20;;;16.10;99.90;;;;;;4927349;29;20456;-81
2022/05/27 06:27:42;;;;;;;2.83;2.63;;;16.20;99.90;;;;;;4925048;29;20465;-81
2022/05/27 06:35:44;;;;;;;4.37;3.10;;;16.30;99.90;;;;;;4878444;29;20468;-81
2022/05/27 06:38:12;;;;;;;3.10;2.87;;;16.40;99.90;;;;;;4928448;29;20842;-81
2022/05/27 06:40:39;;;;;;;3.20;2.90;;;16.30;99.90;;;;;;4924233;29;20456;-81
2022/05/27 06:43:06;;;;;;;2.93;2.73;;;16.40;99.90;;;;;;4925774;29;20943;-81
2022/05/27 06:45:32;;;;;;;2.50;2.40;;;16.30;99.90;;;;;;4921496;29;20464;-81
2022/05/27 06:47:59;;;;;;;3.07;2.77;;;16.50;99.90;;;;;;4930416;29;20661;-82
2022/05/27 06:50:26;;;;;;;3.33;3.10;;;16.40;99.90;;;;;;4932136;29;20493;-79
2022/05/27 06:52:52;;;;;;;5.80;2.67;;;16.40;99.90;;;;;;4931762;29;20468;-80
2022/05/27 06:55:21;;;;;;;3.47;2.90;;;16.40;99.90;;;;;;4933171;29;20573;-80
2022/05/27 06:57:47;;;;;;;2.83;2.63;;;16.40;99.90;;;;;;4924609;29;20479;-79
2022/05/27 07:00:17;;;;;;;2.80;2.60;;;16.40;99.90;;;;;;4927852;29;20444;-81
2022/05/27 07:02:44;;;;;;;3.53;2.60;;;16.10;99.90;;;;;;4927243;29;20468;-81
2022/05/27 07:05:11;;;;;;;4.33;2.87;;;15.90;99.90;;;;;;4929086;29;20458;-80
2022/05/27 07:07:38;;;;;;;2.13;2.03;;;16.10;99.90;;;;;;4929333;29;20484;-81
2022/05/27 07:10:06;;;;;;;2.37;2.27;;;16.10;99.90;;;;;;4926919;29;21017;-80
2022/05/27 07:12:34;;;;;;;4.73;2.57;;;16.00;99.90;;;;;;4929892;29;20476;-81
2022/05/27 07:15:01;;;;;;;4.20;2.77;;;16.00;99.90;;;;;;4926741;29;20453;-82
2022/05/27 07:17:28;;;;;;;5.07;3.73;;;16.00;99.90;;;;;;4924224;29;20481;-83
2022/05/27 07:19:54;;;;;;;5.47;3.77;;;16.00;99.90;;;;;;4921543;29;20462;-82
2022/05/27 07:22:21;;;;;;;2.97;2.77;;;16.10;99.90;;;;;;4921900;29;20464;-82
2022/05/27 07:24:48;;;;;;;4.03;3.73;;;15.70;99.90;;;;;;4921426;29;20470;-82
2022/05/27 07:27:14;;;;;;;2.77;2.60;;;15.70;99.90;;;;;;4921043;29;20459;-80
2022/05/27 07:29:43;;;;;;;3.33;2.63;;;15.60;99.90;;;;;;4923227;29;20455;-85
2022/05/27 07:32:09;;;;;;;3.20;2.90;;;15.40;99.90;;;;;;4921795;29;20979;-84
2022/05/27 07:34:36;;;;;;;4.33;3.10;;;15.70;99.90;;;;;;4922499;29;20463;-85
2022/05/27 07:37:03;;;;;;;3.17;2.40;;;15.50;99.90;;;;;;4922862;29;20471;-82
2022/05/27 07:39:30;;;;;;;2.97;2.77;;;15.50;99.90;;;;;;4922538;29;21001;-84
2022/05/27 07:41:57;;;;;;;3.37;3.17;;;15.60;99.90;;;;;;4922340;29;20459;-84
2022/05/27 07:44:24;;;;;;;4.93;3.53;;;15.70;99.90;;;;;;4922750;29;20459;-85
2022/05/27 07:46:53;;;;;;;3.27;2.83;;;15.60;99.90;;;;;;4922927;29;20461;-85
2022/05/27 07:49:20;;;;;;;2.80;2.50;;;15.70;99.90;;;;;;4922434;29;20486;-85
2022/05/27 07:51:47;;;;;;;2.97;2.77;;;15.80;99.90;;;;;;4922468;29;20542;-83
2022/05/27 07:54:14;;;;;;;3.33;2.87;;;15.80;99.90;;;;;;4921805;29;20466;-85
2022/05/27 07:56:42;;;;;;;3.50;2.80;;;15.60;99.90;;;;;;4922759;29;20456;-85
2022/05/27 07:59:09;;;;;;;2.97;2.73;;;15.70;99.90;;;;;;4922340;29;20480;-85
2022/05/27 08:01:36;;;;;;;2.97;2.73;;;15.80;99.90;;;;;;4922831;29;20452;-85
2022/05/27 08:04:05;;;;;;;2.77;2.57;;;15.70;99.90;;;;;;4923143;29;20869;-85
2022/05/27 08:06:32;;;;;;;2.77;2.50;;;15.80;99.90;;;;;;4922429;29;20455;-84
2022/05/27 08:08:59;;;;;;;2.90;2.30;;;15.90;99.90;;;;;;4922237;29;20484;-84
2022/05/27 08:11:25;;;;;;;3.10;2.60;;;16.10;99.90;;;;;;4922050;29;20496;-85
2022/05/27 08:13:54;;;;;;;3.20;2.60;;;16.20;99.90;;;;;;4922356;29;20462;-85
2022/05/27 08:16:21;;;;;;;3.03;2.73;;;16.30;99.90;;;;;;4922101;29;21057;-84
2022/05/27 08:18:47;;;;;;;4.03;3.73;;;16.40;99.90;;;;;;4922196;29;20994;-85
2022/05/27 08:21:16;;;;;;;3.90;2.53;;;16.60;99.90;;;;;;4921868;29;20468;-83
2022/05/27 08:23:43;;;;;;;4.37;2.50;;;16.70;99.90;;;;;;4922131;29;20536;-85
2022/05/27 08:26:10;;;;;;;2.70;2.50;;;16.80;99.90;;;;;;4922617;29;20455;-85
2022/05/27 08:28:36;;;;;;;3.07;2.77;;;16.80;99.90;;;;;;4922430;29;20497;-85
2022/05/27 08:31:04;;;;;;;3.53;3.07;;;16.80;99.90;;;;;;4921894;29;20881;-84
2022/05/27 08:38:00;;;;;;;2.60;2.40;;;16.90;99.90;;;;;;4927989;29;20472;-84
2022/05/27 08:39:07;;;;;;;3.27;3.07;;;17.10;99.90;;;;;;4927298;29;20566;-84
2022/05/27 08:41:51;;;;;;;3.20;2.90;;;17.30;99.90;;;;;;4927686;29;20480;-84
2022/05/27 08:44:31;;;;;;;5.60;3.33;;;17.10;99.90;;;;;;4928923;29;20469;-83
2022/05/27 08:47:09;;;;;;;2.67;2.47;;;16.80;99.90;;;;;;4928141;29;20896;-83
2022/05/27 08:49:39;;;;;;;2.70;2.50;;;16.70;99.90;;;;;;4923443;29;20436;-84
2022/05/27 08:52:15;;;;;;;3.10;2.80;;;16.60;99.90;;;;;;4922841;29;20498;-84
2022/05/27 08:54:45;;;;;;;3.70;2.50;;;16.40;99.90;;;;;;4923213;29;20513;-84
2022/05/27 09:00:02;;;;;;;3.27;2.67;;;16.30;99.90;;;;;;4922803;29;20435;-84
2022/05/27 09:02:34;;;;;;;5.07;2.77;;;16.30;99.90;;;;;;4922840;29;20449;-84
2022/05/27 09:05:14;;;;;;;3.80;2.90;;;16.40;99.90;;;;;;4924137;29;20456;-85
2022/05/27 09:07:49;;;;;;;3.30;3.00;;;16.40;99.90;;;;;;4939377;29;20494;-83
2022/05/27 09:10:19;;;;;;;2.43;2.33;;;16.40;99.90;;;;;;4935145;29;20468;-84
2022/05/27 09:12:58;;;;;;;2.93;2.73;;;16.40;99.90;;;;;;4923497;29;20455;-84
2022/05/27 09:15:43;;;;;;;3.20;2.90;;;16.50;99.90;;;;;;4923189;29;20459;-84
2022/05/27 09:18:19;;;;;;;3.53;2.60;;;16.60;99.90;;;;;;4922729;29;20480;-84
2022/05/27 09:21:02;;;;;;;3.07;2.80;;;16.80;99.90;;;;;;4922624;29;20456;-85
2022/05/27 09:24:03;;;;;;;2.97;2.77;;;16.90;99.90;;;;;;4925203;29;20448;-84
2022/05/27 09:26:39;;;;;;;2.57;2.37;;;16.70;99.90;;;;;;4926581;29;20826;-84
2022/05/27 09:29:20;;;;;;;2.83;2.27;;;17.00;99.90;;;;;;4926187;29;20475;-84
2022/05/27 09:31:50;;;;;;;2.40;2.20;;;17.20;99.90;;;;;;4925610;29;20876;-84
2022/05/27 09:34:17;;;;;;;4.73;2.53;;;17.50;99.90;;;;;;4926093;29;20452;-84
2022/05/27 09:36:48;;;;;;;2.53;2.43;;;17.60;99.90;;;;;;4926233;29;21147;-84
2022/05/27 09:39:24;;;;;;;1.77;1.67;;;17.70;99.90;;;;;;4926509;29;20493;-84
2022/05/27 09:41:57;;;;;;;2.40;2.20;;;17.70;99.90;;;;;;4925685;29;20452;-84
2022/05/27 09:44:31;;;;;;;3.10;2.23;;;17.60;99.90;;;;;;4926325;29;20448;-84
2022/05/27 09:46:58;;;;;;;2.27;2.07;;;17.30;99.90;;;;;;4926181;29;20457;-82
2022/05/27 09:49:25;;;;;;;2.37;2.07;;;17.50;99.90;;;;;;4925595;29;20481;-84
2022/05/27 09:51:51;;;;;;;2.20;2.00;;;17.70;99.60;;;;;;4925718;29;20507;-84
2022/05/27 09:54:31;;;;;;;2.17;1.97;;;17.70;99.50;;;;;;4925947;29;20453;-85
2022/05/27 09:57:02;;;;;;;2.50;2.30;;;17.60;99.00;;;;;;4926245;29;20457;-84
2022/05/27 09:59:36;;;;;;;2.50;1.97;;;17.90;99.10;;;;;;4925591;29;20536;-84
2022/05/27 10:02:29;;;;;;;1.73;1.63;;;18.00;98.30;;;;;;4926106;29;20812;-84
2022/05/27 10:04:59;;;;;;;2.20;2.10;;;18.30;99.00;;;;;;4907667;29;20468;-84
2022/05/27 10:07:30;;;;;;;2.87;2.67;;;18.50;98.70;;;;;;4925678;29;20464;-84
2022/05/27 10:09:59;;;;;;;2.40;2.23;;;18.70;98.30;;;;;;4925997;29;20500;-84
2022/05/27 10:12:30;;;;;;;1.97;1.87;;;18.60;96.90;;;;;;4925295;29;20500;-84
2022/05/27 10:14:57;;;;;;;2.73;2.13;;;18.30;96.70;;;;;;4924641;29;20470;-84
2022/05/27 10:17:31;;;;;;;5.00;3.00;;;18.20;97.00;;;;;;4925683;29;20513;-84
2022/05/27 10:20:16;;;;;;;2.27;2.07;;;18.30;97.10;;;;;;4924939;29;20461;-84
2022/05/27 10:22:43;;;;;;;2.13;2.03;;;18.50;96.30;;;;;;4925219;29;20849;-85
2022/05/27 10:25:13;;;;;;;1.60;1.50;;;18.40;95.50;;;;;;4925243;29;20481;-84
2022/05/27 10:27:43;;;;;;;1.83;1.73;;;18.40;96.10;;;;;;4925543;29;20497;-84
2022/05/27 10:30:22;;;;;;;2.53;2.13;;;18.60;95.30;;;;;;4925193;29;20553;-84
2022/05/27 10:32:48;;;;;;;1.83;1.73;;;18.80;95.00;;;;;;4925086;29;20854;-84
2022/05/27 10:35:34;;;;;;;3.17;1.90;;;19.10;94.30;;;;;;4923701;29;20459;-85
2022/05/27 10:38:11;;;;;;;2.70;2.50;;;19.10;93.50;;;;;;4924967;29;20554;-84
2022/05/27 10:40:48;;;;;;;2.70;2.50;;;19.20;93.90;;;;;;4924252;29;20942;-84
2022/05/27 10:43:30;;;;;;;3.00;1.80;;;19.40;93.50;;;;;;4924875;29;20425;-84
2022/05/27 10:45:58;;;;;;;3.20;1.80;;;19.80;93.60;;;;;;4925013;29;20451;-83
2022/05/27 10:48:56;;;;;;;2.67;2.03;;;20.10;93.70;;;;;;4924642;29;20539;-84
2022/05/27 10:51:34;;;;;;;2.20;2.00;;;20.00;91.30;;;;;;4924829;29;20488;-84
2022/05/27 10:54:24;;;;;;;1.93;1.83;;;20.10;91.70;;;;;;4924964;29;20783;-84
2022/05/27 11:03:12;;;;;;;1.87;1.77;;;20.30;92.40;;;;;;4924504;29;20528;-84
2022/05/27 11:05:55;;;;;;;3.10;1.80;;;20.60;91.60;;;;;;4924288;29;20458;-84
2022/05/27 11:08:25;;;;;;;2.20;2.10;;;20.60;90.10;;;;;;4924011;29;20491;-83
2022/05/27 11:11:11;;;;;;;2.43;2.23;;;20.70;90.10;;;;;;4923901;29;20498;-83
2022/05/27 11:16:55;;;;;;;4.53;2.07;;;21.10;89.30;;;;;;4924812;29;20487;-84
2022/05/27 11:19:46;;;;;;;1.50;1.40;;;20.60;89.60;;;;;;4924274;29;20830;-84
2022/05/27 11:22:26;;;;;;;1.47;1.37;;;20.80;90.70;;;;;;4923447;29;20446;-85
2022/05/27 11:25:09;;;;;;;2.87;1.80;;;20.80;87.60;;;;;;4923869;29;20459;-84
2022/05/27 11:27:50;;;;;;;1.83;1.73;;;20.40;89.70;;;;;;4923995;29;20827;-84
2022/05/27 11:30:29;;;;;;;1.60;1.50;;;20.40;88.30;;;;;;4924660;29;20549;-84
2022/05/27 11:33:09;;;;;;;1.40;1.30;;;20.80;89.40;;;;;;4923477;29;20498;-84
2022/05/27 11:35:51;;;;;;;2.80;2.10;;;20.80;88.60;;;;;;4923514;29;20511;-84
2022/05/27 11:38:35;;;;;;;1.50;1.40;;;20.60;88.90;;;;;;4923578;29;20489;-84
2022/05/27 11:41:15;;;;;;;1.87;1.73;;;20.20;88.60;;;;;;4923854;29;20467;-84
2022/05/27 11:43:48;;;;;;;1.70;1.60;;;19.70;90.00;;;;;;4924250;29;21023;-84
2022/05/27 11:46:42;;;;;;;1.93;1.37;;;19.60;90.60;;;;;;4923861;29;20486;-84
2022/05/27 11:49:30;;;;;;;1.70;1.60;;;19.70;91.30;;;;;;4923957;29;20496;-84
2022/05/27 11:52:15;;;;;;;1.80;1.70;;;19.70;90.80;;;;;;4923875;29;20484;-84
2022/05/27 11:55:22;;;;;;;1.70;1.60;;;19.60;91.00;;;;;;4923917;29;20454;-83
2022/05/27 11:58:14;;;;;;;1.67;1.57;;;19.50;91.60;;;;;;4923798;29;20458;-84
2022/05/27 12:00:46;;;;;;;2.00;1.90;;;19.50;91.50;;;;;;4922469;29;20891;-84
2022/05/27 12:03:23;;;;;;;1.50;1.40;;;19.50;92.00;;;;;;4923832;29;20455;-84
2022/05/27 12:05:53;;;;;;;1.57;1.47;;;19.60;92.40;;;;;;4923761;29;20448;-84
2022/05/27 12:08:28;;;;;;;1.70;1.27;;;19.70;92.10;;;;;;4923958;29;20494;-84
2022/05/27 12:10:59;;;;;;;1.67;1.57;;;19.80;92.00;;;;;;4923733;29;20454;-84
2022/05/27 12:13:30;;;;;;;3.73;1.47;;;20.00;92.20;;;;;;4923780;29;20456;-84
2022/05/27 12:16:01;;;;;;;2.23;1.63;;;20.20;91.80;;;;;;4923600;29;20870;-84
2022/05/27 12:18:35;;;;;;;1.83;1.47;;;20.30;91.00;;;;;;4922971;29;20540;-84
2022/05/27 12:21:06;;;;;;;2.20;1.60;;;20.40;91.20;;;;;;4927773;29;20454;-84
2022/05/27 12:23:36;;;;;;;4.53;2.33;;;20.60;90.90;;;;;;4931495;29;20482;-84
2022/05/27 12:26:03;;;;;;;2.50;1.50;;;20.70;91.10;;;;;;4930990;29;20459;-84
2022/05/27 12:28:32;;;;;;;2.87;1.60;;;20.80;90.60;;;;;;4932088;29;20474;-82
2022/05/27 12:31:01;;;;;;;2.17;1.90;;;20.80;90.70;;;;;;4932896;29;20450;-84
2022/05/27 12:33:30;;;;;;;1.40;1.30;;;20.70;90.60;;;;;;4932323;29;20459;-84
2022/05/27 12:36:01;;;;;;;2.33;1.60;;;20.70;91.00;;;;;;4922150;29;20460;-85
2022/05/27 12:38:30;;;;;;;1.40;1.30;;;20.70;91.40;;;;;;4921961;29;20492;-82
2022/05/27 12:41:01;;;;;;;1.87;1.77;;;20.70;90.80;;;;;;4921784;29;20454;-85
2022/05/27 12:43:30;;;;;;;2.73;1.20;;;20.70;90.80;;;;;;4924235;29;20447;-84
2022/05/27 12:46:19;;;;;;;2.37;1.70;;;21.00;90.70;;;;;;4925860;29;20463;-84
2022/05/27 12:48:47;;;;;;;1.70;1.60;;;20.70;91.20;;;;;;4925064;29;20495;-84
2022/05/27 12:51:38;;;;;;;1.50;1.40;;;20.80;90.90;;;;;;4921506;29;20479;-86
2022/05/27 12:54:05;;;;;;;1.13;1.13;;;20.80;90.70;;;;;;4893250;29;20464;-81
2022/05/27 13:02:48;;;;;;;1.40;1.30;;;20.50;91.40;;;;;;4904019;29;20471;-86
2022/05/27 13:05:19;;;;;;;3.00;2.20;;;20.50;91.60;;;;;;4921632;29;20446;-86
2022/05/27 13:07:52;;;;;;;2.77;1.70;;;20.60;91.20;;;;;;4920471;29;20514;-85
2022/05/27 13:10:42;;;;;;;1.43;1.33;;;20.30;91.40;;;;;;4922333;29;20464;-86
2022/05/27 13:13:15;;;;;;;2.93;1.60;;;20.00;91.60;;;;;;4921628;29;20486;-86
2022/05/27 13:15:53;;;;;;;1.63;1.53;;;19.90;92.10;;;;;;4921682;29;20834;-86
2022/05/27 13:18:35;;;;;;;1.77;1.67;;;19.90;92.40;;;;;;4907302;29;20482;-85
2022/05/27 13:21:09;;;;;;;2.33;1.50;;;19.80;92.10;;;;;;4923931;29;20467;-84
2022/05/27 13:23:50;;;;;;;1.57;1.47;;;19.80;92.30;;;;;;4921812;29;20450;-84
2022/05/27 13:26:31;;;;;;;2.90;2.00;;;19.60;92.80;;;;;;4920226;29;20467;-80
2022/05/27 13:28:58;;;;;;;1.80;1.70;;;19.50;93.00;;;;;;4922608;29;20474;-84
2022/05/27 13:31:32;;;;;;;1.63;1.60;;;19.40;92.70;;;;;;4924311;29;21058;-85
2022/05/27 13:34:07;;;;;;;2.00;1.90;;;19.30;93.20;;;;;;4925047;29;20447;-85
2022/05/27 13:36:40;;;;;;;2.00;1.90;;;19.20;93.10;;;;;;4923856;29;20539;-83
2022/05/27 13:39:11;;;;;;;2.30;2.10;;;19.20;93.40;;;;;;4924986;29;20473;-84
2022/05/27 13:41:43;;;;;;;2.90;2.60;;;19.20;94.00;;;;;;4913130;29;20993;-86
2022/05/27 13:44:13;;;;;;;1.70;1.60;;;19.10;93.80;;;;;;4914963;29;20455;-80